createdAt,value
2016-07-20T00:00:08.739Z,97.28
2016-07-20T00:01:08.739Z,97.75
2016-07-20T00:02:08.746Z,97.71
2016-07-20T00:03:08.807Z,97.47
2016-07-20T00:04:08.767Z,97.56
2016-07-20T00:05:08.636Z,97.75
2016-07-20T00:06:08.631Z,96.99
2016-07-20T00:07:08.627Z,97.13
2016-07-20T00:08:08.586Z,97.18
2016-07-20T00:09:08.469Z,97.18
2016-07-20T00:10:08.489Z,97.75
2016-07-20T00:11:08.602Z,97.85
2016-07-20T00:12:08.578Z,97.71
2016-07-20T00:13:08.572Z,97.13
2016-07-20T00:14:08.591Z,97.13
2016-07-20T00:15:08.474Z,97.03
2016-07-20T00:16:08.615Z,97.23
2016-07-20T00:17:08.481Z,96.89
2016-07-20T00:18:08.452Z,96.84
2016-07-20T00:19:08.454Z,96.84
2016-07-20T00:20:08.462Z,96.84
2016-07-20T00:21:08.579Z,96.75
2016-07-20T00:22:08.451Z,96.84
2016-07-20T00:23:08.447Z,97.61
2016-07-20T00:24:08.440Z,97.52
2016-07-20T00:25:08.560Z,97.32
2016-07-20T00:26:08.560Z,97.32
2016-07-20T00:27:08.445Z,97.8
2016-07-20T00:28:08.447Z,97.71
2016-07-20T00:29:08.439Z,97.52
2016-07-20T00:30:08.414Z,97.52
2016-07-20T00:31:08.408Z,97.71
2016-07-20T00:32:08.301Z,97.42
2016-07-20T00:33:08.417Z,97.71
2016-07-20T00:34:08.413Z,97.89
2016-07-20T00:35:08.425Z,97.8
2016-07-20T00:36:08.440Z,98.47
2016-07-20T00:37:08.410Z,99.33
2016-07-20T00:38:08.400Z,99.23
2016-07-20T00:39:08.278Z,98.47
2016-07-20T00:40:08.265Z,98.75
2016-07-20T00:41:08.261Z,98.66
2016-07-20T00:42:08.269Z,98.18
2016-07-20T00:43:08.266Z,97.99
2016-07-20T00:44:08.416Z,97.99
2016-07-20T00:45:08.281Z,97.8
2016-07-20T00:46:08.618Z,97.99
2016-07-20T00:47:08.418Z,98.08
2016-07-20T00:48:08.393Z,97.89
2016-07-20T00:49:08.250Z,97.99
2016-07-20T00:50:08.258Z,97.99
2016-07-20T00:51:08.431Z,98.08
2016-07-20T00:52:08.248Z,98.47
2016-07-20T00:53:08.263Z,98.75
2016-07-20T00:54:08.222Z,98.66
2016-07-20T00:55:08.227Z,98.47
2016-07-20T00:56:08.278Z,98.47
2016-07-20T00:57:08.227Z,98.47
2016-07-20T00:58:08.234Z,98.08
2016-07-20T00:59:08.224Z,98.08
2016-07-20T01:00:08.229Z,98.08
2016-07-20T01:01:08.235Z,97.89
2016-07-20T01:02:08.586Z,98.47
2016-07-20T01:03:08.198Z,98.57
2016-07-20T01:04:08.210Z,98.75
2016-07-20T01:05:08.903Z,98.66
2016-07-20T01:06:08.189Z,98.75
2016-07-20T01:07:08.184Z,98.47
2016-07-20T01:08:08.164Z,98.57
2016-07-20T01:09:08.149Z,98.75
2016-07-20T01:10:08.187Z,98.75
2016-07-20T01:11:08.379Z,98.85
2016-07-20T01:12:08.158Z,98.66
2016-07-20T01:13:08.129Z,98.37
2016-07-20T01:14:08.129Z,98.47
2016-07-20T01:15:08.144Z,98.47
2016-07-20T01:16:08.137Z,98.94
2016-07-20T01:17:08.119Z,98.75
2016-07-20T01:18:08.111Z,98.85
2016-07-20T01:19:08.108Z,98.47
2016-07-20T01:20:08.138Z,99.14
2016-07-20T01:21:08.124Z,99.14
2016-07-20T01:22:08.113Z,99.14
2016-07-20T01:23:08.094Z,98.94
2016-07-20T01:24:08.109Z,99.04
2016-07-20T01:25:08.081Z,99.14
2016-07-20T01:26:08.079Z,98.66
2016-07-20T01:27:08.089Z,98.66
2016-07-20T01:28:08.099Z,98.47
2016-07-20T01:29:08.100Z,98.47
2016-07-20T01:30:08.065Z,98.57
2016-07-20T01:31:08.058Z,99.04
2016-07-20T01:32:08.088Z,98.8
2016-07-20T01:33:08.048Z,98.85
2016-07-20T01:34:08.042Z,99.08
2016-07-20T01:35:08.047Z,98.71
2016-07-20T01:36:08.032Z,99.08
2016-07-20T01:37:08.031Z,99.18
2016-07-20T01:38:08.016Z,99.18
2016-07-20T01:39:08.027Z,98.99
2016-07-20T01:40:08.014Z,98.61
2016-07-20T01:41:08.011Z,98.9
2016-07-20T01:42:08.006Z,98.61
2016-07-20T01:43:07.998Z,98.8
2016-07-20T01:44:07.990Z,98.42
2016-07-20T01:45:07.999Z,99.08
2016-07-20T01:46:08.063Z,99.18
2016-07-20T01:47:08.003Z,99.28
2016-07-20T01:48:07.983Z,99.37
2016-07-20T01:49:08.362Z,99.37
2016-07-20T01:50:07.987Z,98.9
2016-07-20T01:51:08.840Z,99.18
2016-07-20T01:52:07.988Z,98.8
2016-07-20T01:53:07.976Z,98.9
2016-07-20T01:54:07.952Z,98.71
2016-07-20T01:55:08.759Z,98.8
2016-07-20T01:56:07.954Z,99.08
2016-07-20T01:57:07.975Z,98.9
2016-07-20T01:58:07.963Z,99.18
2016-07-20T01:59:07.968Z,99.08
2016-07-20T02:00:07.934Z,98.9
2016-07-20T02:01:07.962Z,99.28
2016-07-20T02:02:07.959Z,99.85
2016-07-20T02:03:07.934Z,99.99
2016-07-20T02:04:07.959Z,99.47
2016-07-20T02:05:07.943Z,99.76
2016-07-20T02:06:07.896Z,99.85
2016-07-20T02:07:07.936Z,99.57
2016-07-20T02:08:07.916Z,99.47
2016-07-20T02:09:07.891Z,99.47
2016-07-20T02:10:07.877Z,99.95
2016-07-20T02:11:07.902Z,99.28
2016-07-20T02:12:07.888Z,99.18
2016-07-20T02:13:07.875Z,99.37
2016-07-20T02:14:07.869Z,98.99
2016-07-20T02:15:07.878Z,98.71
2016-07-20T02:16:07.894Z,98.99
2016-07-20T02:17:07.855Z,99.18
2016-07-20T02:18:07.869Z,99.08
2016-07-20T02:19:08.827Z,99.18
2016-07-20T02:20:07.883Z,99.37
2016-07-20T02:21:07.847Z,99.08
2016-07-20T02:22:08.037Z,99.18
2016-07-20T02:23:07.831Z,99.37
2016-07-20T02:24:07.821Z,99.99
2016-07-20T02:25:07.800Z,99.99
2016-07-20T02:26:07.802Z,99.99
2016-07-20T02:27:07.792Z,99.99
2016-07-20T02:28:08.510Z,99.99
2016-07-20T02:29:08.062Z,99.99
2016-07-20T02:30:07.812Z,99.99
2016-07-20T02:31:07.783Z,99.99
2016-07-20T02:32:07.775Z,99.99
2016-07-20T02:33:07.811Z,99.99
2016-07-20T02:34:07.764Z,99.99
2016-07-20T02:35:08.103Z,99.85
2016-07-20T02:36:07.745Z,99.85
2016-07-20T02:37:07.746Z,99.99
2016-07-20T02:38:07.743Z,99.99
2016-07-20T02:39:07.746Z,99.99
2016-07-20T02:40:07.754Z,99.95
2016-07-20T02:41:08.796Z,99.99
2016-07-20T02:42:07.740Z,99.99
2016-07-20T02:43:07.724Z,99.66
2016-07-20T02:44:07.703Z,99.18
2016-07-20T02:45:07.709Z,99.47
2016-07-20T02:46:07.704Z,99.28
2016-07-20T02:47:07.702Z,99.18
2016-07-20T02:48:07.717Z,99.37
2016-07-20T02:49:07.737Z,99.47
2016-07-20T02:50:08.657Z,98.99
2016-07-20T02:51:07.719Z,98.9
2016-07-20T02:52:07.734Z,98.9
2016-07-20T02:53:07.668Z,98.52
2016-07-20T02:54:07.735Z,99.08
2016-07-20T02:55:07.668Z,98.61
2016-07-20T02:56:07.657Z,99.04
2016-07-20T02:57:07.662Z,98.66
2016-07-20T02:58:07.648Z,99.13
2016-07-20T02:59:07.746Z,99.04
2016-07-20T03:00:07.633Z,98.56
2016-07-20T03:01:07.755Z,98.94
2016-07-20T03:02:07.610Z,99.04
2016-07-20T03:03:07.619Z,99.32
2016-07-20T03:04:07.848Z,99.23
2016-07-20T03:05:07.618Z,99.61
2016-07-20T03:06:07.602Z,99.99
2016-07-20T03:07:07.589Z,99.99
2016-07-20T03:08:07.593Z,99.61
2016-07-20T03:09:07.670Z,99.42
2016-07-20T03:10:07.581Z,99.23
2016-07-20T03:11:07.577Z,99.61
2016-07-20T03:12:07.608Z,99.52
2016-07-20T03:13:07.639Z,99.42
2016-07-20T03:14:07.626Z,99.99
2016-07-20T03:15:07.582Z,99.99
2016-07-20T03:16:07.615Z,99.99
2016-07-20T03:17:07.606Z,99.9
2016-07-20T03:18:07.588Z,99.99
2016-07-20T03:19:07.643Z,99.99
2016-07-20T03:20:07.631Z,99.99
2016-07-20T03:21:07.654Z,99.8
2016-07-20T03:22:07.570Z,99.99
2016-07-20T03:23:07.518Z,99.99
2016-07-20T03:24:07.510Z,99.99
2016-07-20T03:25:07.517Z,99.99
2016-07-20T03:26:07.498Z,99.99
2016-07-20T03:27:07.498Z,99.99
2016-07-20T03:28:07.496Z,99.99
2016-07-20T03:29:07.493Z,99.99
2016-07-20T03:30:07.511Z,99.99
2016-07-20T03:31:07.493Z,99.99
2016-07-20T03:32:07.471Z,99.99
2016-07-20T03:33:07.470Z,99.99
2016-07-20T03:34:07.534Z,99.99
2016-07-20T03:35:07.533Z,99.8
2016-07-20T03:36:07.552Z,99.8
2016-07-20T03:37:07.452Z,99.99
2016-07-20T03:38:07.435Z,99.99
2016-07-20T03:39:07.429Z,99.99
2016-07-20T03:40:08.606Z,99.99
2016-07-20T03:41:07.482Z,99.99
2016-07-20T03:42:08.419Z,99.99
2016-07-20T03:43:07.409Z,99.99
2016-07-20T03:44:07.409Z,99.99
2016-07-20T03:45:07.465Z,99.99
2016-07-20T03:46:07.449Z,99.99
2016-07-20T03:47:07.402Z,99.99
2016-07-20T03:48:07.387Z,99.99
2016-07-20T03:49:07.393Z,99.99
2016-07-20T03:50:07.385Z,99.99
2016-07-20T03:51:07.364Z,99.99
2016-07-20T03:52:07.380Z,99.99
2016-07-20T03:53:08.624Z,99.99
2016-07-20T03:54:07.387Z,99.99
2016-07-20T03:55:07.369Z,99.99
2016-07-20T03:56:07.369Z,99.99
2016-07-20T03:57:07.348Z,99.99
2016-07-20T03:58:07.347Z,99.99
2016-07-20T03:59:07.347Z,99.99
2016-07-20T04:00:07.333Z,99.99
2016-07-20T04:01:07.322Z,99.99
2016-07-20T04:02:07.313Z,99.99
2016-07-20T04:03:07.325Z,99.99
2016-07-20T04:04:07.311Z,99.99
2016-07-20T04:05:07.318Z,99.99
2016-07-20T04:06:07.308Z,99.99
2016-07-20T04:07:07.293Z,99.99
2016-07-20T04:08:07.293Z,99.99
2016-07-20T04:09:07.285Z,99.99
2016-07-20T04:10:07.328Z,99.99
2016-07-20T04:11:07.426Z,99.99
2016-07-20T04:12:07.276Z,99.99
2016-07-20T04:13:08.381Z,99.99
2016-07-20T04:14:07.249Z,99.99
2016-07-20T04:15:07.265Z,99.99
2016-07-20T04:16:07.255Z,99.99
2016-07-20T04:17:07.245Z,99.99
2016-07-20T04:18:07.262Z,99.99
2016-07-20T04:19:07.241Z,99.99
2016-07-20T04:20:07.255Z,99.99
2016-07-20T04:21:07.301Z,99.99
2016-07-20T04:22:07.254Z,99.99
2016-07-20T04:23:08.530Z,99.99
2016-07-20T04:24:07.255Z,99.99
2016-07-20T04:25:07.353Z,99.99
2016-07-20T04:26:07.213Z,99.99
2016-07-20T04:27:07.211Z,99.99
2016-07-20T04:28:07.205Z,99.99
2016-07-20T04:29:07.453Z,99.99
2016-07-20T04:30:07.198Z,99.99
2016-07-20T04:31:07.186Z,99.99
2016-07-20T04:32:07.969Z,99.99
2016-07-20T04:33:07.219Z,99.99
2016-07-20T04:34:07.200Z,99.99
2016-07-20T04:35:07.224Z,99.99
2016-07-20T04:36:07.245Z,99.99
2016-07-20T04:37:07.169Z,99.99
2016-07-20T04:38:07.150Z,99.99
2016-07-20T04:39:07.245Z,99.99
2016-07-20T04:40:07.209Z,99.99
2016-07-20T04:41:07.179Z,99.99
2016-07-20T04:42:07.204Z,99.99
2016-07-20T04:43:08.225Z,99.99
2016-07-20T04:44:07.154Z,99.99
2016-07-20T04:45:07.244Z,99.99
2016-07-20T04:46:07.135Z,99.99
2016-07-20T04:47:07.172Z,99.99
2016-07-20T04:48:07.220Z,99.99
2016-07-20T04:49:08.204Z,99.99
2016-07-20T04:50:07.410Z,99.99
2016-07-20T04:51:07.100Z,99.99
2016-07-20T04:52:07.151Z,99.99
2016-07-20T04:53:07.888Z,99.99
2016-07-20T04:54:07.133Z,99.99
2016-07-20T04:55:07.130Z,99.99
2016-07-20T04:56:07.146Z,99.99
2016-07-20T04:57:07.855Z,99.99
2016-07-20T04:58:07.870Z,99.99
2016-07-20T04:59:07.111Z,99.99
2016-07-20T05:00:07.048Z,99.99
2016-07-20T05:01:07.049Z,99.99
2016-07-20T05:02:07.052Z,99.99
2016-07-20T05:03:07.718Z,99.99
2016-07-20T05:04:07.155Z,99.99
2016-07-20T05:05:07.114Z,99.99
2016-07-20T05:06:07.103Z,99.99
2016-07-20T05:07:07.024Z,99.99
2016-07-20T05:08:07.020Z,99.99
2016-07-20T05:09:07.022Z,99.99
2016-07-20T05:10:07.008Z,99.99
2016-07-20T05:11:07.007Z,99.99
2016-07-20T05:12:07.009Z,99.99
2016-07-20T05:13:07.215Z,99.99
2016-07-20T05:14:07.045Z,99.99
2016-07-20T05:15:07.039Z,99.99
2016-07-20T05:16:07.057Z,99.99
2016-07-20T05:17:07.052Z,99.99
2016-07-20T05:18:08.019Z,99.99
2016-07-20T05:19:06.977Z,99.99
2016-07-20T05:20:06.975Z,99.99
2016-07-20T05:21:06.973Z,99.99
2016-07-20T05:22:07.014Z,99.99
2016-07-20T05:23:07.030Z,99.99
2016-07-20T05:24:07.009Z,99.99
2016-07-20T05:25:06.965Z,99.99
2016-07-20T05:26:06.952Z,99.99
2016-07-20T05:27:06.998Z,99.99
2016-07-20T05:28:07.011Z,99.99
2016-07-20T05:29:06.941Z,99.99
2016-07-20T05:30:06.938Z,99.99
2016-07-20T05:31:06.925Z,99.99
2016-07-20T05:32:06.984Z,99.99
2016-07-20T05:33:07.007Z,99.99
2016-07-20T05:34:06.986Z,99.99
2016-07-20T05:35:06.983Z,99.99
2016-07-20T05:36:06.953Z,99.99
2016-07-20T05:37:06.962Z,99.99
2016-07-20T05:38:06.957Z,99.99
2016-07-20T05:39:07.726Z,99.99
2016-07-20T05:40:06.963Z,99.99
2016-07-20T05:41:06.903Z,99.99
2016-07-20T05:42:06.898Z,99.99
2016-07-20T05:43:06.974Z,99.99
2016-07-20T05:44:06.929Z,99.99
2016-07-20T05:45:06.915Z,99.99
2016-07-20T05:46:06.962Z,99.99
2016-07-20T05:47:07.002Z,99.99
2016-07-20T05:48:06.923Z,99.99
2016-07-20T05:49:06.913Z,99.99
2016-07-20T05:50:07.015Z,99.99
2016-07-20T05:51:06.935Z,99.99
2016-07-20T05:52:06.890Z,99.99
2016-07-20T05:53:06.908Z,99.99
2016-07-20T05:54:06.881Z,99.99
2016-07-20T05:55:06.939Z,99.99
2016-07-20T05:56:06.884Z,99.99
2016-07-20T05:57:06.846Z,99.99
2016-07-20T05:58:06.843Z,99.99
2016-07-20T05:59:06.842Z,99.99
2016-07-20T06:00:06.903Z,99.99
2016-07-20T06:01:06.895Z,99.99
2016-07-20T06:02:06.863Z,99.99
2016-07-20T06:03:06.883Z,99.99
2016-07-20T06:04:06.830Z,99.99
2016-07-20T06:05:06.820Z,99.99
2016-07-20T06:06:06.821Z,99.99
2016-07-20T06:07:06.816Z,99.99
2016-07-20T06:08:06.857Z,99.99
2016-07-20T06:09:06.860Z,99.99
2016-07-20T06:10:06.832Z,99.99
2016-07-20T06:11:06.838Z,99.99
2016-07-20T06:12:06.815Z,99.99
2016-07-20T06:13:06.799Z,99.99
2016-07-20T06:14:06.803Z,99.99
2016-07-20T06:15:06.862Z,99.99
2016-07-20T06:16:06.832Z,99.99
2016-07-20T06:17:07.612Z,99.99
2016-07-20T06:18:06.795Z,99.99
2016-07-20T06:19:06.796Z,99.99
2016-07-20T06:20:06.797Z,99.99
2016-07-20T06:21:06.840Z,99.99
2016-07-20T06:22:06.773Z,99.99
2016-07-20T06:23:06.776Z,99.96
2016-07-20T06:24:06.842Z,99.99
2016-07-20T06:25:06.876Z,99.99
2016-07-20T06:26:06.817Z,99.99
2016-07-20T06:27:06.819Z,99.58
2016-07-20T06:28:06.848Z,98.91
2016-07-20T06:29:06.760Z,99.01
2016-07-20T06:30:06.765Z,99.19
2016-07-20T06:31:06.781Z,99.77
2016-07-20T06:32:06.791Z,99.1
2016-07-20T06:33:06.750Z,98.81
2016-07-20T06:34:06.750Z,99.01
2016-07-20T06:35:06.791Z,99.01
2016-07-20T06:36:06.817Z,98.72
2016-07-20T06:37:07.773Z,99.01
2016-07-20T06:38:07.551Z,98.48
2016-07-20T06:39:06.784Z,98.86
2016-07-20T06:40:07.514Z,98.19
2016-07-20T06:41:06.741Z,97.23
2016-07-20T06:42:06.734Z,97.56
2016-07-20T06:43:06.725Z,97.76
2016-07-20T06:44:06.739Z,98.05
2016-07-20T06:45:06.727Z,97.76
2016-07-20T06:46:07.745Z,98.05
2016-07-20T06:47:06.780Z,98.33
2016-07-20T06:48:06.756Z,97.95
2016-07-20T06:49:06.764Z,97.38
2016-07-20T06:50:06.712Z,97.56
2016-07-20T06:51:06.719Z,97.04
2016-07-20T06:52:06.714Z,96.08
2016-07-20T06:53:06.717Z,95.7
2016-07-20T06:54:06.726Z,96.61
2016-07-20T06:55:06.715Z,97.71
2016-07-20T06:56:06.718Z,97.52
2016-07-20T06:57:06.707Z,92.61
2016-07-20T06:58:06.723Z,89.01
2016-07-20T06:59:06.777Z,86.01
2016-07-20T07:00:07.432Z,82.92
2016-07-20T07:01:06.752Z,76.43
2016-07-20T07:02:06.704Z,72.64
2016-07-20T07:03:07.003Z,69.33
2016-07-20T07:04:06.757Z,66.5
2016-07-20T07:05:06.710Z,67.66
2016-07-20T07:06:06.716Z,64.43
2016-07-20T07:07:07.716Z,61.41
2016-07-20T07:08:06.785Z,55.05
2016-07-20T07:09:06.821Z,49.58
2016-07-20T07:10:07.532Z,45.34
2016-07-20T07:11:06.746Z,44.6
2016-07-20T07:12:06.730Z,36.26
2016-07-20T07:13:06.735Z,41.56
2016-07-20T07:14:06.777Z,41.6
2016-07-20T07:15:06.749Z,39.17
2016-07-20T07:16:06.756Z,31.06
2016-07-20T07:17:06.825Z,35.68
2016-07-20T07:18:07.535Z,39.82
2016-07-20T07:19:06.787Z,39.94
2016-07-20T07:20:06.792Z,38.07
2016-07-20T07:21:06.870Z,32.89
2016-07-20T07:22:07.059Z,33.77
2016-07-20T07:23:06.828Z,33.59
2016-07-20T07:24:06.852Z,31.82
2016-07-20T07:25:06.850Z,34.01
2016-07-20T07:26:06.857Z,34.33
2016-07-20T07:27:06.880Z,30.59
2016-07-20T07:28:06.887Z,32.86
2016-07-20T07:29:06.899Z,31.49
2016-07-20T07:30:06.917Z,31
2016-07-20T07:31:06.863Z,27.86
2016-07-20T07:32:06.875Z,27.17
2016-07-20T07:33:06.939Z,31.01
2016-07-20T07:34:06.959Z,29.96
2016-07-20T07:35:06.898Z,28.19
2016-07-20T07:36:06.967Z,27.3
2016-07-20T07:37:07.008Z,28.09
2016-07-20T07:38:06.964Z,30.17
2016-07-20T07:39:06.970Z,29.48
2016-07-20T07:40:07.016Z,26.54
2016-07-20T07:41:06.965Z,26.24
2016-07-20T07:42:06.985Z,26.35
2016-07-20T07:43:07.779Z,25.56
2016-07-20T07:44:06.997Z,25.97
2016-07-20T07:45:07.004Z,24.4
2016-07-20T07:46:07.014Z,23.61
2016-07-20T07:47:07.034Z,25.01
2016-07-20T07:48:07.034Z,24.21
2016-07-20T07:49:07.168Z,19.07
2016-07-20T07:50:07.116Z,18.08
2016-07-20T07:51:07.082Z,17.28
2016-07-20T07:52:07.143Z,17.66
2016-07-20T07:53:07.140Z,17.06
2016-07-20T07:54:07.112Z,17.74
2016-07-20T07:55:07.121Z,18.42
2016-07-20T07:56:07.136Z,19
2016-07-20T07:57:07.152Z,19.58
2016-07-20T07:58:07.162Z,21.15
2016-07-20T07:59:07.171Z,22.03
2016-07-20T08:00:07.253Z,20.27
2016-07-20T08:01:07.255Z,21.66
2016-07-20T08:02:07.259Z,21.07
2016-07-20T08:03:07.229Z,21.65
2016-07-20T08:04:07.247Z,24.02
2016-07-20T08:05:07.264Z,25.7
2016-07-20T08:06:07.262Z,28.06
2016-07-20T08:07:07.272Z,25.79
2016-07-20T08:08:07.322Z,19.49
2016-07-20T08:09:07.360Z,24.01
2016-07-20T08:10:07.300Z,27.06
2016-07-20T08:11:07.350Z,24.41
2016-07-20T08:12:07.399Z,20.78
2016-07-20T08:13:07.371Z,20.28
2016-07-20T08:14:07.381Z,21.05
2016-07-20T08:15:07.364Z,22.01
2016-07-20T08:16:07.367Z,23.29
2016-07-20T08:17:07.417Z,23.58
2016-07-20T08:18:07.508Z,20.94
2016-07-20T08:19:07.451Z,21.52
2016-07-20T08:20:07.428Z,22.98
2016-07-20T08:21:07.423Z,24.84
2016-07-20T08:22:07.519Z,23.27
2016-07-20T08:23:07.460Z,27.28
2016-07-20T08:24:07.486Z,25.5
2016-07-20T08:25:07.469Z,25.2
2016-07-20T08:26:07.462Z,27.12
2016-07-20T08:27:07.478Z,26.61
2016-07-20T08:28:07.503Z,29.32
2016-07-20T08:29:07.550Z,31.84
2016-07-20T08:30:08.394Z,35.14
2016-07-20T08:31:07.543Z,33.85
2016-07-20T08:32:08.402Z,32.96
2016-07-20T08:33:07.576Z,32.94
2016-07-20T08:34:07.586Z,34.17
2016-07-20T08:35:07.619Z,34.84
2016-07-20T08:36:07.555Z,36.28
2016-07-20T08:37:08.420Z,35.68
2016-07-20T08:38:07.591Z,35.86
2016-07-20T08:39:07.626Z,44.41
2016-07-20T08:40:07.591Z,43.15
2016-07-20T08:41:08.416Z,43.34
2016-07-20T08:42:07.982Z,44.21
2016-07-20T08:43:07.583Z,37.99
2016-07-20T08:44:07.642Z,38.27
2016-07-20T08:45:08.588Z,39.43
2016-07-20T08:46:07.601Z,38.85
2016-07-20T08:47:07.659Z,38.65
2016-07-20T08:48:07.609Z,39.03
2016-07-20T08:49:07.610Z,38.44
2016-07-20T08:50:07.634Z,39.61
2016-07-20T08:51:07.629Z,40.85
2016-07-20T08:52:07.635Z,41.05
2016-07-20T08:53:07.718Z,41.06
2016-07-20T08:54:07.702Z,46.5
2016-07-20T08:55:07.646Z,47.06
2016-07-20T08:56:07.652Z,42.23
2016-07-20T08:57:07.665Z,41.84
2016-07-20T08:58:07.672Z,40.39
2016-07-20T08:59:07.668Z,40.29
2016-07-20T09:00:07.680Z,41.82
2016-07-20T09:01:07.737Z,40.36
2016-07-20T09:02:07.793Z,41.33
2016-07-20T09:03:07.679Z,43.26
2016-07-20T09:04:07.691Z,41.92
2016-07-20T09:05:07.689Z,43.35
2016-07-20T09:06:07.701Z,42.19
2016-07-20T09:07:07.714Z,43.37
2016-07-20T09:08:07.717Z,44.64
2016-07-20T09:09:07.703Z,42.4
2016-07-20T09:10:07.728Z,39.59
2016-07-20T09:11:07.711Z,39.88
2016-07-20T09:12:07.719Z,42.21
2016-07-20T09:13:07.730Z,45.02
2016-07-20T09:14:07.727Z,47.96
2016-07-20T09:15:07.734Z,50.09
2016-07-20T09:16:07.731Z,43.3
2016-07-20T09:17:07.794Z,42.61
2016-07-20T09:18:07.744Z,45.04
2016-07-20T09:19:07.762Z,47.08
2016-07-20T09:20:08.543Z,41.45
2016-07-20T09:21:07.770Z,40.87
2016-07-20T09:22:07.814Z,40.48
2016-07-20T09:23:08.806Z,39.12
2016-07-20T09:24:07.811Z,40.48
2016-07-20T09:25:07.935Z,39.61
2016-07-20T09:26:07.802Z,39.51
2016-07-20T09:27:08.785Z,45.34
2016-07-20T09:28:08.624Z,42.33
2016-07-20T09:29:08.289Z,40.67
2016-07-20T09:30:07.983Z,41.36
2016-07-20T09:31:07.956Z,42.33
2016-07-20T09:32:07.956Z,41.16
2016-07-20T09:33:07.947Z,41.94
2016-07-20T09:34:07.932Z,41.36
2016-07-20T09:35:07.937Z,38.54
2016-07-20T09:36:08.535Z,42.03
2016-07-20T09:37:08.814Z,41.64
2016-07-20T09:38:07.952Z,43.27
2016-07-20T09:39:07.949Z,42.3
2016-07-20T09:40:07.951Z,43.08
2016-07-20T09:41:07.974Z,43.08
2016-07-20T09:42:07.980Z,44.42
2016-07-20T09:43:08.096Z,44.51
2016-07-20T09:44:07.990Z,45.2
2016-07-20T09:45:08.084Z,41.97
2016-07-20T09:46:08.110Z,44.1
2016-07-20T09:47:08.643Z,45.17
2016-07-20T09:48:08.063Z,45.34
2016-07-20T09:49:07.966Z,45.34
2016-07-20T09:50:08.061Z,45.15
2016-07-20T09:51:08.072Z,43.82
2016-07-20T09:52:08.113Z,43.7
2016-07-20T09:53:08.093Z,45.07
2016-07-20T09:54:08.089Z,44.3
2016-07-20T09:55:08.088Z,46.62
2016-07-20T09:56:08.099Z,45.37
2016-07-20T09:57:08.094Z,44.23
2016-07-20T09:58:08.102Z,44.51
2016-07-20T09:59:08.197Z,43.74
2016-07-20T10:00:08.206Z,41.41
2016-07-20T10:01:08.216Z,41.7
2016-07-20T10:02:08.114Z,41.8
2016-07-20T10:03:08.241Z,43.06
2016-07-20T10:04:08.948Z,44.23
2016-07-20T10:05:08.260Z,45.1
2016-07-20T10:06:08.264Z,44.81
2016-07-20T10:07:08.275Z,42.99
2016-07-20T10:08:08.160Z,42.99
2016-07-20T10:09:08.265Z,43.18
2016-07-20T10:10:08.179Z,40.77
2016-07-20T10:11:08.286Z,42.23
2016-07-20T10:12:08.086Z,40.97
2016-07-20T10:13:08.203Z,43.2
2016-07-20T10:14:08.105Z,40.46
2016-07-20T10:15:08.224Z,41.8
2016-07-20T10:16:08.232Z,43.35
2016-07-20T10:17:08.217Z,44.3
2016-07-20T10:18:08.233Z,44.59
2016-07-20T10:19:08.236Z,44.27
2016-07-20T10:20:08.716Z,45.42
2016-07-20T10:21:08.326Z,46.39
2016-07-20T10:22:08.262Z,43
2016-07-20T10:23:08.275Z,42.41
2016-07-20T10:24:08.249Z,44.26
2016-07-20T10:25:09.046Z,45.13
2016-07-20T10:26:08.236Z,46.97
2016-07-20T10:27:08.234Z,48.74
2016-07-20T10:28:08.834Z,43.02
2016-07-20T10:29:08.254Z,42.05
2016-07-20T10:30:08.215Z,43.7
2016-07-20T10:31:08.229Z,44.76
2016-07-20T10:32:08.292Z,45.17
2016-07-20T10:33:08.243Z,44.88
2016-07-20T10:34:08.156Z,43.13
2016-07-20T10:35:08.276Z,39.84
2016-07-20T10:36:08.263Z,40.42
2016-07-20T10:37:08.239Z,42.38
2016-07-20T10:38:08.220Z,40.54
2016-07-20T10:39:08.230Z,37.34
2016-07-20T10:40:08.233Z,37.53
2016-07-20T10:41:08.241Z,40.15
2016-07-20T10:42:08.249Z,41.31
2016-07-20T10:43:08.264Z,41.8
2016-07-20T10:44:08.291Z,40.83
2016-07-20T10:45:08.311Z,40.92
2016-07-20T10:46:08.314Z,42.26
2016-07-20T10:47:08.295Z,42.09
2016-07-20T10:48:08.294Z,42.09
2016-07-20T10:49:08.226Z,41.61
2016-07-20T10:50:08.205Z,40.25
2016-07-20T10:51:08.219Z,41.99
2016-07-20T10:52:08.224Z,43.35
2016-07-20T10:53:08.234Z,41.12
2016-07-20T10:54:08.245Z,42.89
2016-07-20T10:55:08.285Z,41.63
2016-07-20T10:56:08.279Z,40.75
2016-07-20T10:57:08.269Z,40.46
2016-07-20T10:58:08.280Z,38.71
2016-07-20T10:59:08.964Z,40.92
2016-07-20T11:00:08.532Z,41.7
2016-07-20T11:01:08.306Z,41.51
2016-07-20T11:02:08.525Z,39.67
2016-07-20T11:03:08.270Z,40.73
2016-07-20T11:04:08.263Z,42.07
2016-07-20T11:05:08.319Z,43.52
2016-07-20T11:06:08.288Z,44.27
2016-07-20T11:07:08.284Z,43.41
2016-07-20T11:08:08.312Z,43.6
2016-07-20T11:09:08.336Z,40.89
2016-07-20T11:10:08.324Z,41.95
2016-07-20T11:11:08.505Z,40.4
2016-07-20T11:12:08.325Z,42.72
2016-07-20T11:13:08.332Z,41.37
2016-07-20T11:14:08.270Z,41.86
2016-07-20T11:15:08.275Z,42.14
2016-07-20T11:16:08.297Z,42.14
2016-07-20T11:17:08.274Z,43.6
2016-07-20T11:18:08.315Z,44.47
2016-07-20T11:19:08.276Z,45.25
2016-07-20T11:20:08.320Z,44.67
2016-07-20T11:21:08.328Z,43.5
2016-07-20T11:22:08.306Z,41.68
2016-07-20T11:23:08.295Z,41.58
2016-07-20T11:24:08.304Z,42.26
2016-07-20T11:25:08.325Z,42.75
2016-07-20T11:26:08.331Z,42.26
2016-07-20T11:27:08.294Z,43.04
2016-07-20T11:28:08.315Z,41.88
2016-07-20T11:29:08.394Z,42.85
2016-07-20T11:30:08.306Z,43.52
2016-07-20T11:31:08.318Z,42.94
2016-07-20T11:32:08.320Z,43.23
2016-07-20T11:33:09.306Z,44.4
2016-07-20T11:34:08.343Z,44.4
2016-07-20T11:35:08.402Z,44.2
2016-07-20T11:36:08.356Z,44.68
2016-07-20T11:37:08.368Z,46.43
2016-07-20T11:38:08.947Z,44.49
2016-07-20T11:39:08.354Z,42.75
2016-07-20T11:40:08.397Z,41.49
2016-07-20T11:41:08.353Z,40.91
2016-07-20T11:42:08.354Z,40.52
2016-07-20T11:43:08.347Z,39.74
2016-07-20T11:44:08.377Z,39.84
2016-07-20T11:45:08.365Z,43.21
2016-07-20T11:46:08.375Z,41.17
2016-07-20T11:47:08.423Z,41.37
2016-07-20T11:48:09.157Z,43.6
2016-07-20T11:49:09.406Z,41.17
2016-07-20T11:50:08.400Z,40.31
2016-07-20T11:51:08.385Z,42.34
2016-07-20T11:52:08.378Z,43.7
2016-07-20T11:53:08.396Z,42.24
2016-07-20T11:54:08.394Z,41.95
2016-07-20T11:55:08.490Z,41.76
2016-07-20T11:56:08.450Z,41.27
2016-07-20T11:57:08.472Z,40.23
2016-07-20T11:58:08.767Z,39.92
2016-07-20T11:59:08.429Z,39.06
2016-07-20T12:00:08.483Z,40.5
2016-07-20T12:01:08.463Z,40.59
2016-07-20T12:02:08.434Z,40.81
2016-07-20T12:03:08.442Z,39.24
2016-07-20T12:04:08.454Z,40.59
2016-07-20T12:05:08.440Z,41.17
2016-07-20T12:06:08.460Z,43.5
2016-07-20T12:07:08.446Z,41.66
2016-07-20T12:08:08.446Z,39.14
2016-07-20T12:09:09.258Z,41.08
2016-07-20T12:10:08.505Z,37.88
2016-07-20T12:11:08.486Z,36.04
2016-07-20T12:12:08.525Z,35.48
2016-07-20T12:13:08.503Z,37.79
2016-07-20T12:14:08.560Z,39.74
2016-07-20T12:15:08.479Z,36.54
2016-07-20T12:16:08.487Z,35.38
2016-07-20T12:17:08.523Z,35.67
2016-07-20T12:18:08.554Z,35.38
2016-07-20T12:19:08.487Z,36.16
2016-07-20T12:20:08.512Z,36.06
2016-07-20T12:21:08.829Z,33.83
2016-07-20T12:22:08.569Z,34.8
2016-07-20T12:23:08.549Z,35.28
2016-07-20T12:24:08.788Z,35.67
2016-07-20T12:25:08.553Z,33.92
2016-07-20T12:26:08.559Z,34.12
2016-07-20T12:27:08.595Z,35.09
2016-07-20T12:28:08.586Z,34.8
2016-07-20T12:29:08.537Z,33.92
2016-07-20T12:30:08.556Z,34.89
2016-07-20T12:31:08.601Z,34.12
2016-07-20T12:32:08.626Z,34.99
2016-07-20T12:33:08.553Z,37.81
2016-07-20T12:34:09.266Z,38.48
2016-07-20T12:35:08.631Z,38.29
2016-07-20T12:36:08.552Z,38.96
2016-07-20T12:37:08.566Z,37.81
2016-07-20T12:38:08.588Z,38.39
2016-07-20T12:39:08.571Z,34.41
2016-07-20T12:40:08.579Z,36.06
2016-07-20T12:41:08.579Z,37.61
2016-07-20T12:42:08.578Z,39.16
2016-07-20T12:43:08.602Z,39.06
2016-07-20T12:44:08.584Z,40.33
2016-07-20T12:45:08.599Z,40.13
2016-07-20T12:46:08.597Z,41
2016-07-20T12:47:08.650Z,39.26
2016-07-20T12:48:08.716Z,38.96
2016-07-20T12:49:08.617Z,36.16
2016-07-20T12:50:08.896Z,37.51
2016-07-20T12:51:08.627Z,37.9
2016-07-20T12:52:08.627Z,40.33
2016-07-20T12:53:09.403Z,41.58
2016-07-20T12:54:08.627Z,40.61